createdAt,value
2022-08-04T00:00:01.290Z,25.16
2022-08-04T00:03:06.693Z,25.10
2022-08-04T00:05:52.996Z,25.07
2022-08-04T00:08:35.592Z,25.05
2022-08-04T00:11:15.615Z,25.03
2022-08-04T00:14:02.899Z,24.96
2022-08-04T00:16:39.304Z,25.00
2022-08-04T00:19:17.845Z,24.88
2022-08-04T00:21:57.612Z,24.94
2022-08-04T00:24:33.121Z,24.93
2022-08-04T00:27:06.096Z,24.90
2022-08-04T00:29:42.215Z,24.87
2022-08-04T00:32:15.403Z,24.87
2022-08-04T00:35:09.723Z,24.84
2022-08-04T00:37:42.526Z,24.80
2022-08-04T00:40:24.344Z,24.76
2022-08-04T00:43:09.556Z,24.73
2022-08-04T00:46:17.510Z,24.70
2022-08-04T00:49:22.279Z,24.68
2022-08-04T00:52:31.604Z,24.63
2022-08-04T00:55:13.163Z,24.61
2022-08-04T00:57:57.770Z,24.51
2022-08-04T01:00:34.631Z,24.60
2022-08-04T01:03:15.781Z,24.59
2022-08-04T01:06:08.665Z,24.46
2022-08-04T01:08:51.257Z,24.52
2022-08-04T01:11:57.124Z,24.50
2022-08-04T01:14:54.363Z,24.49
2022-08-04T01:17:34.912Z,24.39
2022-08-04T01:20:09.796Z,24.46
2022-08-04T01:23:15.760Z,24.33
2022-08-04T01:26:43.994Z,24.38
2022-08-04T01:29:32.987Z,24.42
2022-08-04T01:32:27.578Z,24.38
2022-08-04T01:35:04.555Z,24.27
2022-08-04T01:37:50.417Z,24.33
2022-08-04T01:40:24.593Z,24.30
2022-08-04T01:42:57.614Z,24.25
2022-08-04T01:45:32.807Z,24.23
2022-08-04T01:48:08.265Z,24.21
2022-08-04T01:50:44.622Z,24.17
2022-08-04T01:53:17.201Z,24.16
2022-08-04T01:55:54.499Z,24.11
2022-08-04T01:58:30.424Z,24.06
2022-08-04T02:01:08.569Z,24.05
2022-08-04T02:04:19.434Z,24.01
2022-08-04T02:06:49.023Z,23.99
2022-08-04T02:09:23.852Z,23.95
2022-08-04T02:12:06.228Z,23.92
2022-08-04T02:14:57.694Z,23.90
2022-08-04T02:17:40.046Z,23.88
2022-08-04T02:20:17.211Z,23.85
2022-08-04T02:22:55.094Z,23.81
2022-08-04T02:25:28.930Z,23.78
2022-08-04T02:28:23.100Z,23.74
2022-08-04T02:31:04.484Z,23.70
2022-08-04T02:33:40.798Z,23.60
2022-08-04T02:36:19.750Z,23.66
2022-08-04T02:38:57.963Z,23.64
2022-08-04T02:41:33.209Z,23.53
2022-08-04T02:44:10.780Z,23.60
2022-08-04T02:46:46.152Z,23.58
2022-08-04T02:49:19.775Z,23.56
2022-08-04T02:51:54.021Z,23.53
2022-08-04T02:54:32.888Z,23.51
2022-08-04T02:57:13.074Z,23.48
2022-08-04T03:00:08.023Z,23.46
2022-08-04T03:02:52.200Z,23.44
2022-08-04T03:05:28.085Z,23.40
2022-08-04T03:08:52.602Z,23.28
2022-08-04T03:11:46.923Z,23.34
2022-08-04T03:14:54.749Z,23.31
2022-08-04T03:17:52.351Z,23.15
2022-08-04T03:21:02.254Z,23.27
2022-08-04T03:24:07.147Z,23.24
2022-08-04T03:27:11.305Z,23.14
2022-08-04T03:30:02.407Z,23.22
2022-08-04T03:33:06.388Z,23.18
2022-08-04T03:36:04.765Z,23.15
2022-08-04T03:39:04.508Z,23.09
2022-08-04T03:41:51.884Z,23.13
2022-08-04T03:45:26.198Z,23.10
2022-08-04T03:48:30.183Z,23.09
2022-08-04T03:51:39.473Z,23.08
2022-08-04T03:54:34.424Z,23.07
2022-08-04T03:57:35.321Z,23.07
2022-08-04T04:00:15.188Z,23.05
2022-08-04T04:03:28.467Z,23.04
2022-08-04T04:09:51.628Z,23.07
2022-08-04T04:13:06.901Z,23.04
2022-08-04T04:16:10.785Z,23.04
2022-08-04T04:19:05.123Z,23.06
2022-08-04T04:21:59.678Z,23.08
2022-08-04T04:25:05.340Z,23.08
2022-08-04T04:28:43.765Z,23.09
2022-08-04T04:31:16.706Z,23.11
2022-08-04T04:33:59.779Z,23.13
2022-08-04T04:36:45.689Z,23.15
2022-08-04T04:39:32.201Z,23.17
2022-08-04T04:42:43.941Z,23.18
2022-08-04T04:45:35.934Z,23.20
2022-08-04T04:48:16.325Z,23.21
2022-08-04T04:51:01.502Z,23.25
2022-08-04T04:53:37.208Z,23.27
2022-08-04T04:56:18.409Z,23.29
2022-08-04T04:58:53.940Z,23.31
2022-08-04T05:01:56.126Z,23.32
2022-08-04T05:04:59.845Z,23.33
2022-08-04T05:07:57.690Z,23.28
2022-08-04T05:10:51.773Z,23.41
2022-08-04T05:14:34.838Z,23.46
2022-08-04T05:16:40.616Z,23.52
2022-08-04T05:19:24.779Z,23.56
2022-08-04T05:22:05.510Z,23.39
2022-08-04T05:24:44.406Z,23.64
2022-08-04T05:27:21.687Z,23.67
2022-08-04T05:29:57.684Z,23.74
2022-08-04T05:32:37.477Z,23.78
2022-08-04T05:35:16.704Z,23.83
2022-08-04T05:38:12.027Z,23.87
2022-08-04T05:40:45.933Z,23.94
2022-08-04T05:43:19.535Z,23.99
2022-08-04T05:45:52.823Z,24.04
2022-08-04T05:48:28.567Z,24.10
2022-08-04T05:51:05.611Z,24.17
2022-08-04T05:53:38.402Z,24.24
2022-08-04T05:56:13.351Z,24.28
2022-08-04T05:58:48.054Z,24.40
2022-08-04T06:01:22.108Z,24.45
2022-08-04T06:03:56.108Z,24.56
2022-08-04T06:06:28.978Z,24.58
2022-08-04T06:09:01.558Z,24.70
2022-08-04T06:12:02.186Z,24.80
2022-08-04T06:14:33.157Z,24.91
2022-08-04T06:18:32.257Z,25.01
2022-08-04T06:20:20.080Z,25.12
2022-08-04T06:22:56.831Z,25.18
2022-08-04T06:25:32.461Z,25.27
2022-08-04T06:28:10.006Z,25.35
2022-08-04T06:30:47.709Z,25.49
2022-08-04T06:33:33.510Z,25.45
2022-08-04T06:36:25.825Z,25.63
2022-08-04T06:38:59.264Z,25.71
2022-08-04T06:41:32.003Z,25.77
2022-08-04T06:44:07.374Z,25.89
2022-08-04T06:46:42.204Z,25.96
2022-08-04T06:49:15.216Z,26.05
2022-08-04T06:51:49.646Z,26.15
2022-08-04T06:54:22.173Z,26.21
2022-08-04T06:56:55.340Z,26.29
2022-08-04T06:59:28.553Z,26.27
2022-08-04T07:02:02.819Z,26.44
2022-08-04T07:04:36.572Z,26.51
2022-08-04T07:07:08.994Z,26.60
2022-08-04T07:09:42.602Z,26.69
2022-08-04T07:12:20.343Z,26.77
2022-08-04T07:14:53.611Z,26.84
2022-08-04T07:17:28.861Z,26.92
2022-08-04T07:20:10.557Z,27.00
2022-08-04T07:22:44.454Z,27.06
2022-08-04T07:25:18.675Z,27.15
2022-08-04T07:27:54.316Z,27.24
2022-08-04T07:30:30.908Z,27.33
2022-08-04T07:33:03.800Z,27.41
2022-08-04T07:36:05.269Z,27.48
2022-08-04T07:38:28.948Z,27.56
2022-08-04T07:41:03.916Z,27.67
2022-08-04T07:43:37.196Z,27.75
2022-08-04T07:46:11.369Z,27.84
2022-08-04T07:48:43.541Z,27.90
2022-08-04T07:51:17.109Z,27.92
2022-08-04T07:53:54.544Z,28.09
2022-08-04T07:56:28.921Z,28.20
2022-08-04T07:59:02.543Z,28.26
2022-08-04T08:01:36.712Z,28.35
2022-08-04T08:04:11.790Z,28.42
2022-08-04T08:06:44.573Z,28.48
2022-08-04T08:09:19.418Z,28.55
2022-08-04T08:12:38.042Z,28.55
2022-08-04T08:14:47.134Z,28.72
2022-08-04T08:17:19.371Z,28.82
2022-08-04T08:19:52.303Z,28.87
2022-08-04T08:22:24.748Z,28.93
2022-08-04T08:24:57.201Z,29.02
2022-08-04T08:27:29.720Z,29.08
2022-08-04T08:30:02.174Z,29.15
2022-08-04T08:32:35.069Z,29.21
2022-08-04T08:35:09.666Z,29.27
2022-08-04T08:37:47.251Z,29.35
2022-08-04T08:40:39.994Z,29.40
2022-08-04T08:44:04.748Z,29.47
2022-08-04T08:46:49.768Z,29.61
2022-08-04T08:50:01.873Z,29.73
2022-08-04T08:53:01.876Z,29.83
2022-08-04T08:56:00.331Z,29.91
2022-08-04T08:59:15.226Z,29.98
2022-08-04T09:02:04.463Z,30.04
2022-08-04T09:05:09.165Z,30.08
2022-08-04T09:08:10.313Z,30.14
2022-08-04T09:10:46.301Z,30.22
2022-08-04T09:13:26.748Z,30.30
2022-08-04T09:16:09.208Z,30.37
2022-08-04T09:18:49.143Z,30.46
2022-08-04T09:21:29.477Z,30.55
2022-08-04T09:24:34.841Z,30.61
2022-08-04T09:27:05.214Z,30.60
2022-08-04T09:29:42.832Z,30.75
2022-08-04T09:32:29.479Z,30.83
2022-08-04T09:35:15.588Z,30.91
2022-08-04T09:37:59.005Z,31.01
2022-08-04T09:40:53.053Z,31.09
2022-08-04T09:44:41.795Z,31.17
2022-08-04T09:46:36.306Z,31.23
2022-08-04T09:49:15.985Z,31.29
2022-08-04T09:52:00.275Z,31.34
2022-08-04T09:54:42.135Z,31.44
2022-08-04T09:57:19.049Z,31.48
2022-08-04T09:59:59.958Z,31.55
2022-08-04T10:02:38.753Z,31.63
2022-08-04T10:05:16.137Z,31.68
2022-08-04T10:08:16.635Z,31.75
2022-08-04T10:11:05.218Z,31.80
2022-08-04T10:14:00.587Z,31.91
2022-08-04T10:16:44.863Z,31.96
2022-08-04T10:19:26.919Z,32.03
2022-08-04T10:22:28.199Z,32.09
2022-08-04T10:26:03.653Z,32.12
2022-08-04T10:28:10.431Z,32.17
2022-08-04T10:30:47.531Z,32.26
2022-08-04T10:33:29.015Z,32.28
2022-08-04T10:36:06.178Z,32.38
2022-08-04T10:38:43.969Z,32.46
2022-08-04T10:41:27.141Z,32.48
2022-08-04T10:44:07.667Z,32.54
2022-08-04T10:46:46.465Z,32.58
2022-08-04T10:49:25.845Z,32.67
2022-08-04T10:52:09.996Z,32.73
2022-08-04T10:54:49.765Z,32.80
2022-08-04T10:57:31.086Z,32.81
2022-08-04T11:00:07.024Z,32.81
2022-08-04T11:02:46.301Z,32.90
2022-08-04T11:05:28.480Z,32.97
2022-08-04T11:08:10.051Z,33.05
2022-08-04T11:10:47.881Z,33.05
2022-08-04T11:13:29.978Z,33.11
2022-08-04T11:16:06.615Z,33.19
2022-08-04T11:18:49.365Z,33.23
2022-08-04T11:21:26.591Z,33.24
2022-08-04T11:24:15.955Z,33.31
2022-08-04T11:26:52.961Z,33.40
2022-08-04T11:29:30.056Z,33.52
2022-08-04T11:32:04.860Z,33.58
2022-08-04T11:34:41.568Z,33.64
2022-08-04T11:37:18.934Z,33.70
2022-08-04T11:40:02.433Z,33.75
2022-08-04T11:42:40.009Z,33.82
2022-08-04T11:45:18.840Z,33.86
2022-08-04T11:47:56.652Z,33.90
2022-08-04T11:50:38.624Z,33.90
2022-08-04T11:53:17.418Z,33.95
2022-08-04T11:56:09.510Z,33.96
2022-08-04T11:58:43.665Z,34.02
2022-08-04T12:01:35.771Z,34.05
2022-08-04T12:04:15.161Z,34.09
2022-08-04T12:07:00.518Z,34.08
2022-08-04T12:09:49.858Z,34.15
2022-08-04T12:12:33.180Z,34.19
2022-08-04T12:15:17.808Z,34.27
2022-08-04T12:18:02.542Z,34.26
2022-08-04T12:20:42.723Z,34.34
2022-08-04T12:23:24.075Z,34.38
2022-08-04T12:26:01.627Z,34.41
2022-08-04T12:29:07.216Z,34.41
2022-08-04T12:31:30.602Z,34.45
2022-08-04T12:34:09.596Z,34.50
2022-08-04T12:36:49.608Z,34.55
2022-08-04T12:39:23.720Z,34.58
2022-08-04T12:42:12.623Z,34.62
2022-08-04T12:44:48.195Z,34.59
2022-08-04T12:47:26.894Z,34.64
2022-08-04T12:50:05.154Z,34.67
2022-08-04T12:53:04.550Z,34.67
2022-08-04T12:55:38.703Z,34.61
2022-08-04T12:58:43.293Z,34.65
2022-08-04T13:02:09.426Z,34.63
2022-08-04T13:04:14.326Z,34.57
2022-08-04T13:06:53.913Z,34.56
2022-08-04T13:09:29.893Z,34.60
2022-08-04T13:12:16.635Z,34.64
2022-08-04T13:14:54.217Z,34.57
2022-08-04T13:17:26.493Z,34.57
2022-08-04T13:20:03.432Z,34.63
2022-08-04T13:22:37.078Z,34.57
2022-08-04T13:26:44.708Z,34.68
2022-08-04T13:28:21.296Z,34.68
2022-08-04T13:30:58.661Z,34.69
2022-08-04T13:33:34.425Z,34.71
2022-08-04T13:36:09.247Z,34.72
2022-08-04T13:38:53.143Z,34.72
2022-08-04T13:41:30.520Z,34.65
2022-08-04T13:44:19.628Z,34.70
2022-08-04T13:46:56.605Z,34.76
2022-08-04T13:49:42.484Z,34.78
2022-08-04T13:52:26.043Z,34.81
2022-08-04T13:54:58.923Z,34.83
2022-08-04T13:57:37.313Z,34.88
2022-08-04T14:00:13.366Z,34.96
2022-08-04T14:02:48.174Z,34.87
2022-08-04T14:05:28.030Z,34.90
2022-08-04T14:08:07.673Z,34.81
2022-08-04T14:10:40.879Z,34.81
2022-08-04T14:13:13.942Z,34.86
2022-08-04T14:16:00.985Z,34.84
2022-08-04T14:18:36.873Z,34.76
2022-08-04T14:21:11.829Z,34.81
2022-08-04T14:23:51.775Z,34.88
2022-08-04T14:26:31.518Z,34.76
2022-08-04T14:29:26.202Z,34.99
2022-08-04T14:32:12.966Z,34.85
2022-08-04T14:34:47.759Z,34.82
2022-08-04T14:37:22.708Z,34.78
2022-08-04T14:40:19.186Z,34.68
2022-08-04T14:42:54.921Z,34.55
2022-08-04T14:45:37.134Z,34.49
2022-08-04T14:48:14.404Z,34.60
2022-08-04T14:50:48.432Z,34.59
2022-08-04T14:53:22.801Z,34.62
2022-08-04T14:55:56.494Z,34.58
2022-08-04T14:58:36.871Z,34.38
2022-08-04T15:01:15.305Z,34.28
2022-08-04T15:03:52.689Z,34.16
2022-08-04T15:06:27.612Z,34.13
2022-08-04T15:09:02.801Z,34.09
2022-08-04T15:11:40.159Z,34.05
2022-08-04T15:14:36.014Z,34.05
2022-08-04T15:17:29.362Z,33.99
2022-08-04T15:20:00.958Z,34.01
2022-08-04T15:22:33.818Z,34.02
2022-08-04T15:25:08.421Z,33.97
2022-08-04T15:27:51.172Z,33.97
2022-08-04T15:30:23.721Z,33.84
2022-08-04T15:33:00.175Z,33.93
2022-08-04T15:35:38.860Z,33.91
2022-08-04T15:38:23.836Z,33.93
2022-08-04T15:41:10.510Z,33.94
2022-08-04T15:43:59.617Z,33.86
2022-08-04T15:47:11.650Z,33.78
2022-08-04T15:49:44.502Z,33.70
2022-08-04T15:52:18.152Z,33.62
2022-08-04T15:54:52.756Z,33.62
2022-08-04T15:57:55.665Z,33.58
2022-08-04T16:00:27.792Z,33.55
2022-08-04T16:03:00.601Z,33.49
2022-08-04T16:05:42.565Z,33.36
2022-08-04T16:08:22.045Z,33.26
2022-08-04T16:10:54.464Z,33.17
2022-08-04T16:13:26.703Z,33.14
2022-08-04T16:16:03.345Z,33.09
2022-08-04T16:18:45.013Z,32.95
2022-08-04T16:21:26.646Z,32.93
2022-08-04T16:24:18.403Z,32.89
2022-08-04T16:26:54.256Z,32.74
2022-08-04T16:29:39.741Z,32.78
2022-08-04T16:32:14.963Z,32.70
2022-08-04T16:34:55.839Z,32.64
2022-08-04T16:37:35.240Z,32.60
2022-08-04T16:40:35.209Z,32.57
2022-08-04T16:43:13.572Z,32.50
2022-08-04T16:45:52.752Z,32.43
2022-08-04T16:48:27.094Z,32.39
2022-08-04T16:51:05.002Z,32.34
2022-08-04T16:53:57.726Z,32.31
2022-08-04T16:56:35.589Z,32.26
2022-08-04T16:59:12.753Z,32.14
2022-08-04T17:01:50.665Z,32.12
2022-08-04T17:04:31.196Z,32.16
2022-08-04T17:07:05.320Z,32.04
2022-08-04T17:09:37.466Z,32.07
2022-08-04T17:12:10.232Z,32.01
2022-08-04T17:14:42.380Z,31.94
2022-08-04T17:17:24.172Z,31.91
2022-08-04T17:20:17.567Z,31.90
2022-08-04T17:22:49.915Z,31.90
2022-08-04T17:25:51.963Z,31.86
2022-08-04T17:28:30.343Z,31.83
2022-08-04T17:31:11.852Z,31.78
2022-08-04T17:33:54.172Z,31.73
2022-08-04T17:36:31.993Z,31.69
2022-08-04T17:39:17.219Z,31.66
2022-08-04T17:41:57.074Z,31.63
2022-08-04T17:44:39.972Z,31.62
2022-08-04T17:47:20.008Z,31.59
2022-08-04T17:49:52.966Z,31.56
2022-08-04T17:52:39.785Z,31.53
2022-08-04T17:55:20.663Z,31.53
2022-08-04T17:58:21.003Z,31.48
2022-08-04T18:01:23.823Z,31.46
2022-08-04T18:04:00.039Z,31.43
2022-08-04T18:06:34.823Z,31.40
2022-08-04T18:12:05.965Z,31.37
2022-08-04T18:14:51.113Z,31.28
2022-08-04T18:18:21.600Z,31.19
2022-08-04T18:20:30.958Z,31.04
2022-08-04T18:23:06.087Z,31.05
2022-08-04T18:25:51.277Z,30.95
2022-08-04T18:31:16.725Z,30.82
2022-08-04T18:33:56.914Z,30.76
2022-08-04T18:36:35.871Z,30.69
2022-08-04T18:39:12.846Z,30.62
2022-08-04T18:42:02.465Z,30.54
2022-08-04T18:44:52.119Z,30.47
2022-08-04T18:47:28.779Z,30.39
2022-08-04T18:50:59.887Z,30.29
2022-08-04T18:52:55.776Z,30.19
2022-08-04T18:55:33.978Z,30.08
2022-08-04T18:58:28.100Z,30.00
2022-08-04T19:01:01.387Z,29.91
2022-08-04T19:03:33.736Z,29.74
2022-08-04T19:06:09.326Z,29.72
2022-08-04T19:08:42.236Z,29.64
2022-08-04T19:11:38.726Z,29.55
2022-08-04T19:14:31.622Z,29.46
2022-08-04T19:17:12.421Z,29.35
2022-08-04T19:19:47.726Z,29.28
2022-08-04T19:22:35.467Z,29.21
2022-08-04T19:25:09.691Z,29.12
2022-08-04T19:27:42.418Z,29.04
2022-08-04T19:30:18.488Z,28.96
2022-08-04T19:32:51.235Z,28.88
2022-08-04T19:35:23.928Z,28.72
2022-08-04T19:38:03.643Z,28.71
2022-08-04T19:40:39.243Z,28.63
2022-08-04T19:43:15.175Z,28.49
2022-08-04T19:45:47.856Z,28.50
2022-08-04T19:48:20.407Z,28.43
2022-08-04T19:50:52.737Z,28.35
2022-08-04T19:53:33.164Z,28.27
2022-08-04T19:56:10.767Z,28.21
2022-08-04T19:58:47.524Z,28.15
2022-08-04T20:01:31.439Z,28.10
2022-08-04T20:04:11.261Z,28.04
2022-08-04T20:06:44.095Z,28.00
2022-08-04T20:09:25.800Z,27.97
2022-08-04T20:12:00.381Z,27.92
2022-08-04T20:14:33.438Z,27.86
2022-08-04T20:17:10.267Z,27.81
2022-08-04T20:19:51.369Z,27.68
2022-08-04T20:22:52.418Z,27.69
2022-08-04T20:25:37.282Z,27.65
2022-08-04T20:28:25.700Z,27.60
2022-08-04T20:31:04.259Z,27.56
2022-08-04T20:33:36.562Z,27.52
2022-08-04T20:36:10.072Z,27.49
2022-08-04T20:38:42.400Z,27.45
2022-08-04T20:41:15.262Z,27.43
2022-08-04T20:43:56.189Z,27.32
2022-08-04T20:46:29.952Z,27.39
2022-08-04T20:49:03.777Z,27.37
2022-08-04T20:51:40.017Z,27.31
2022-08-04T20:54:16.249Z,27.22
2022-08-04T20:56:51.195Z,27.26
2022-08-04T20:59:24.139Z,27.24
2022-08-04T21:01:56.909Z,27.24
2022-08-04T21:04:35.844Z,27.23
2022-08-04T21:07:09.825Z,27.20
2022-08-04T21:09:50.658Z,27.21
2022-08-04T21:12:27.398Z,27.19
2022-08-04T21:15:13.502Z,27.11
2022-08-04T21:17:57.454Z,27.24
2022-08-04T21:20:39.530Z,27.24
2022-08-04T21:23:14.921Z,27.29
2022-08-04T21:25:50.951Z,27.31
2022-08-04T21:28:23.163Z,27.18
2022-08-04T21:30:56.387Z,27.31
2022-08-04T21:33:50.914Z,27.33
2022-08-04T21:36:27.459Z,27.37
2022-08-04T21:39:00.207Z,27.32
2022-08-04T21:41:40.621Z,27.31
2022-08-04T21:44:26.772Z,27.38
2022-08-04T21:47:00.053Z,27.47
2022-08-04T21:49:32.312Z,27.44
2022-08-04T21:52:07.500Z,27.46
2022-08-04T21:54:42.584Z,27.50
2022-08-04T21:57:17.186Z,27.60
2022-08-04T21:59:49.373Z,27.59
2022-08-04T22:02:21.836Z,27.59
2022-08-04T22:04:54.507Z,27.60
2022-08-04T22:07:50.333Z,27.55
2022-08-04T22:10:31.903Z,27.49
2022-08-04T22:13:07.900Z,27.51
2022-08-04T22:16:05.053Z,27.44
2022-08-04T22:18:36.875Z,27.49
2022-08-04T22:21:12.165Z,27.50
2022-08-04T22:23:47.057Z,27.51
2022-08-04T22:26:26.842Z,27.44
2022-08-04T22:29:01.447Z,27.41
2022-08-04T22:31:53.107Z,27.36
2022-08-04T22:34:30.585Z,27.38
2022-08-04T22:37:16.784Z,27.36
2022-08-04T22:39:56.753Z,27.24
2022-08-04T22:42:31.715Z,27.28
2022-08-04T22:45:07.992Z,27.30
2022-08-04T22:47:42.113Z,27.32
2022-08-04T22:50:28.688Z,27.26
2022-08-04T22:53:01.418Z,27.26
2022-08-04T22:56:07.513Z,27.22
2022-08-04T22:58:28.477Z,27.15
2022-08-04T23:01:01.683Z,27.16
2022-08-04T23:03:38.416Z,27.13
2022-08-04T23:06:13.605Z,27.07
2022-08-04T23:08:48.479Z,27.06
2022-08-04T23:11:20.972Z,26.99
2022-08-04T23:13:54.916Z,26.96
2022-08-04T23:16:28.623Z,26.92
2022-08-04T23:19:09.929Z,26.97
2022-08-04T23:22:01.621Z,26.95
2022-08-04T23:24:35.247Z,26.87
2022-08-04T23:27:08.963Z,26.92
2022-08-04T23:29:52.869Z,26.85
2022-08-04T23:32:27.404Z,26.89
2022-08-04T23:35:01.579Z,26.86
2022-08-04T23:37:35.325Z,26.84
2022-08-04T23:40:29.974Z,26.84
2022-08-04T23:43:17.010Z,26.77
2022-08-04T23:46:07.732Z,26.78
2022-08-04T23:48:46.681Z,26.75
2022-08-04T23:51:18.717Z,26.68
2022-08-04T23:54:02.134Z,26.67
2022-08-04T23:56:38.006Z,26.73
2022-08-04T23:59:18.055Z,26.68
